»·PEaware :: N12406 L88-KSBP

N12406 :: L88-KSBP

FLIGHT INFORMATION

Flight Status: Arrived
Operator: Privately registered:
United States
More flights under this callsign
Pilot: Anonymous 32054 (32054)
Aircraft: MOONEY M-20 201 202 205 220 ATS MSE
(M20P)
More flights by this aircraft type
Origin: L88 New Cuyama
United States
Destination: KSBP San Luis Co Regl
United States
More flights between these airports :: More routes between these airports
Route:
File this flight plan on PilotEdge
Remarks:
Altitude:
(Current/Filed)
6,500ft
Speed:
(Current/Filed)
140kts
Departed: 17-Oct-20 02:52 PM
Arrived: 17-Oct-20 03:34 PM
Distance/Time
Traveled:
50nm/0:42
Distance/Time
To Go:
Arrived

Flight Plot

Page will automatically refresh every two minutes.


Map Options




Map Legend


Flown Route
Filed Route
Departure Airport
Arrival Airport
Navaid (VOR, NDB)
Fix

Horizontal Profiles

Position Reports

Time Latitude Longitude Heading Altitude Ground
Speed
17-Oct-20 14:31 34.942750 -119.690223 63 2178ft 0kts
17-Oct-20 14:32 34.942750 -119.690223 63 2178ft 0kts
17-Oct-20 14:33 34.942753 -119.690216 63 2178ft 0kts
17-Oct-20 14:34 34.942752 -119.690216 63 2178ft 0kts
17-Oct-20 14:35 34.942753 -119.690216 63 2178ft 0kts
17-Oct-20 14:36 34.942752 -119.690216 63 2178ft 0kts
17-Oct-20 14:37 34.942752 -119.690216 63 2178ft 0kts
17-Oct-20 14:38 34.942752 -119.690216 63 2178ft 0kts
17-Oct-20 14:39 34.942752 -119.690216 63 2178ft 0kts
17-Oct-20 14:40 34.942753 -119.690216 63 2178ft 0kts
17-Oct-20 14:41 34.942753 -119.690216 63 2178ft 0kts
17-Oct-20 14:42 34.942753 -119.690216 63 2178ft 0kts
17-Oct-20 14:43 34.942753 -119.690216 63 2178ft 0kts
17-Oct-20 14:44 34.942753 -119.690216 63 2178ft 0kts
17-Oct-20 14:45 34.942695 -119.690153 193 2179ft 3kts
17-Oct-20 14:52 34.954124 -119.777114 294 5954ft 98kts
17-Oct-20 14:53 34.966126 -119.807919 294 6370ft 115kts
17-Oct-20 14:54 34.984195 -119.855312 294 6497ft 177kts
17-Oct-20 14:55 35.005494 -119.911633 294 6498ft 185kts
17-Oct-20 14:56 35.027111 -119.968915 294 6499ft 185kts
17-Oct-20 14:57 35.048607 -120.026282 293 6498ft 186kts
17-Oct-20 14:58 35.082043 -120.069029 286 6501ft 185kts
17-Oct-20 14:59 35.097352 -120.129342 287 6501ft 186kts
17-Oct-20 15:00 35.111827 -120.188338 283 6497ft 165kts
17-Oct-20 15:01 35.123420 -120.239415 286 6500ft 152kts
17-Oct-20 15:02 35.135919 -120.288517 287 6499ft 150kts
17-Oct-20 15:03 35.148482 -120.337361 287 6501ft 150kts
17-Oct-20 15:04 35.161032 -120.386228 287 6500ft 150kts
17-Oct-20 15:04 35.171486 -120.426879 286 6501ft 150kts
17-Oct-20 15:06 35.183748 -120.478889 286 6503ft 130kts
17-Oct-20 15:06 35.192602 -120.513916 286 6499ft 128kts
17-Oct-20 15:08 35.204534 -120.561719 294 6437ft 113kts
17-Oct-20 15:08 35.221704 -120.583815 307 6140ft 106kts
17-Oct-20 15:10 35.216463 -120.619774 173 5952ft 108kts
17-Oct-20 15:10 35.206502 -120.589309 101 5977ft 129kts
17-Oct-20 15:11 35.199045 -120.543139 101 5631ft 141kts
17-Oct-20 15:12 35.216295 -120.522661 318 4516ft 136kts
17-Oct-20 15:13 35.244927 -120.553618 317 3238ft 138kts
17-Oct-20 15:14 35.260900 -120.581204 265 3213ft 93kts
17-Oct-20 15:15 35.253648 -120.605051 153 3258ft 104kts
17-Oct-20 15:16 35.231932 -120.587871 223 3259ft 106kts
17-Oct-20 15:17 35.220843 -120.615749 88 1674ft 95kts
17-Oct-20 15:18 35.222258 -120.624160 101 1123ft 92kts
17-Oct-20 15:19 35.230835 -120.603921 354 2373ft 82kts
17-Oct-20 15:20 35.251442 -120.608024 335 3868ft 66kts
17-Oct-20 15:21 35.277518 -120.611030 14 5027ft 114kts
17-Oct-20 15:22 35.323750 -120.593393 17 4508ft 191kts
17-Oct-20 15:23 35.365079 -120.560466 89 4502ft 191kts
17-Oct-20 15:24 35.329469 -120.542551 202 3807ft 145kts
17-Oct-20 15:25 35.298192 -120.561763 207 3602ft 112kts
17-Oct-20 15:26 35.271674 -120.578143 207 3595ft 104kts
17-Oct-20 15:29 35.252413 -120.652825 337 1460ft 99kts
17-Oct-20 15:30 35.255783 -120.633880 137 1445ft 87kts
17-Oct-20 15:31 35.233613 -120.619110 206 1002ft 84kts
17-Oct-20 15:32 35.238643 -120.643319 306 184ft 62kts
17-Oct-20 15:33 35.242521 -120.648202 120 167ft 9kts
17-Oct-20 15:34 35.241431 -120.646279 108 173ft 4kts
17-Oct-20 15:35 35.241516 -120.645928 74 174ft 0kts
17-Oct-20 15:36 35.241516 -120.645928 74 174ft 0kts

Navigation Log

Ident Type
Flight plan parsing failed, navigation log unavailable